This is the latest recevied weather packets stored in our database for station/object KI4MRC. If no packets are shown the sender has not sent any weather packets the latest 10 day(s).
| Time | Temp. | Humidity | Pressure | Rain* | Wind** | Luminosity | Snow |
|---|---|---|---|---|---|---|---|
| 1777996554 | 28.89° C | 73% | 1015.2 hPa | 0 mm | - | 878 W/m² | - |
| 1777996251 | 28.33° C | 74% | 1015.3 hPa | 0 mm | - | 919 W/m² | - |
| 1777995947 | 27.78° C | 74% | 1015.3 hPa | 0 mm | - | 1069 W/m² | - |
| 1777995643 | 27.22° C | 77% | 1015.2 hPa | 0 mm | - | 951 W/m² | - |
| 1777995341 | 27.22° C | 76% | 1015.2 hPa | 0 mm | - | 222 W/m² | - |
| 1777995038 | 27.22° C | 78% | 1015.1 hPa | 0 mm | - | 284 W/m² | - |
| 1777994735 | 27.78° C | 75% | 1015.5 hPa | 0 mm | - | 175 W/m² | - |
| 1777994431 | 28.33° C | 71% | 1015.4 hPa | 0 mm | - | 577 W/m² | - |
| 1777994131 | 28.33° C | 72% | 1015.3 hPa | 0 mm | - | 972 W/m² | - |
| 1777993829 | 28.33° C | 73% | 1015.2 hPa | 0 mm | - | 842 W/m² | - |
| 1777993525 | 27.78° C | 76% | 1015.5 hPa | 0 mm | - | 881 W/m² | - |
| 1777993221 | 27.22° C | 76% | 1015.5 hPa | 0 mm | - | 886 W/m² | - |
| 1777992917 | 26.67° C | 78% | 1015.5 hPa | 0 mm | - | 530 W/m² | - |
| 1777992616 | 27.22° C | 77% | 1015.2 hPa | 0 mm | - | 343 W/m² | - |
| 1777992313 | 26.11° C | 81% | 1015.3 hPa | 0 mm | - | 615 W/m² | - |
| 1777992010 | 26.67° C | 78% | 1015.4 hPa | 0 mm | - | 140 W/m² | - |
| 1777991709 | 27.22° C | 77% | 1015.5 hPa | 0 mm | - | 227 W/m² | - |
| 1777991405 | 27.78° C | 76% | 1015.4 hPa | 0 mm | - | 196 W/m² | - |
| 1777991102 | 27.78° C | 75% | 1015.4 hPa | 0 mm | - | 466 W/m² | - |
| 1777990800 | 27.78° C | 76% | 1015.1 hPa | 0 mm | - | 164 W/m² | - |
| 1777990496 | 27.78° C | 76% | 1015.1 hPa | 0 mm | - | 760 W/m² | - |
| 1777989890 | 26.67° C | 80% | 1015.1 hPa | 0 mm | - | 662 W/m² | - |
| 1777989586 | 26.67° C | 78% | 1015 hPa | 0 mm | - | 154 W/m² | - |
| 1777989283 | 27.78° C | 79% | 1015.2 hPa | 0 mm | - | 709 W/m² | - |
| 1777988979 | 27.22° C | 81% | 1014.9 hPa | 0 mm | - | 658 W/m² | - |
* Rain latest hour (hover to see other rain measurements)
** Current wind speed in m/s (hover to see current wind gust speed)